Roos, Michigan
Current Conditions -  °F | °C
As of 7:32 AM on Monday 26 Jan 2015 (Local Time) from KOSC Reporting Station
Overcast Overcast  
Wind Chill: 13°   Ceiling: 2600
Heat Index: 13°   Visibility: 10mi
Dew Point: 10°   Wind: 3mph
Humidity: 87%   Direction: 330°NNW
Pressure: 30"   Gusts: NA
Location:  44.2265°N, 83.986°W
Report Text: KOSC 261232Z AUTO 33003KT 10SM OVC026 M10/M12 A3000 RMK AO2 T11071125
Loading
Personal Weather Stations






























Interactive Weather Map New forecast layout! Learn more

10-Day Weather Forecast

Advertisements
Track Severe Weather on mobile